sensor_id;sensor_type;location;lat;lon;timestamp;P1;durP1;ratioP1;P2;durP2;ratioP2
24681;SDS011;12802;53.390;-2.328;2022-12-18T00:00:46;7.72;;;4.38;;
24681;SDS011;12802;53.390;-2.328;2022-12-18T00:03:12;7.72;;;3.78;;
24681;SDS011;12802;53.390;-2.328;2022-12-18T00:05:48;6.82;;;4.03;;
24681;SDS011;12802;53.390;-2.328;2022-12-18T00:08:15;8.40;;;3.65;;
24681;SDS011;12802;53.390;-2.328;2022-12-18T00:10:41;7.72;;;4.28;;
24681;SDS011;12802;53.390;-2.328;2022-12-18T00:13:07;7.88;;;4.00;;
24681;SDS011;12802;53.390;-2.328;2022-12-18T00:15:33;10.55;;;3.90;;
24681;SDS011;12802;53.390;-2.328;2022-12-18T00:18:00;6.70;;;3.22;;
24681;SDS011;12802;53.390;-2.328;2022-12-18T00:20:25;7.55;;;3.05;;
24681;SDS011;12802;53.390;-2.328;2022-12-18T00:22:52;8.40;;;3.55;;
24681;SDS011;12802;53.390;-2.328;2022-12-18T00:25:18;10.90;;;3.28;;
24681;SDS011;12802;53.390;-2.328;2022-12-18T00:27:44;8.27;;;2.83;;
24681;SDS011;12802;53.390;-2.328;2022-12-18T00:30:10;9.88;;;3.10;;
24681;SDS011;12802;53.390;-2.328;2022-12-18T00:32:36;8.77;;;3.50;;
24681;SDS011;12802;53.390;-2.328;2022-12-18T00:35:02;6.95;;;2.85;;
24681;SDS011;12802;53.390;-2.328;2022-12-18T00:37:29;6.18;;;3.15;;
24681;SDS011;12802;53.390;-2.328;2022-12-18T00:39:55;7.45;;;3.80;;
24681;SDS011;12802;53.390;-2.328;2022-12-18T00:42:21;5.60;;;2.50;;
24681;SDS011;12802;53.390;-2.328;2022-12-18T00:45:05;6.88;;;1.95;;
24681;SDS011;12802;53.390;-2.328;2022-12-18T00:47:31;4.43;;;2.60;;
24681;SDS011;12802;53.390;-2.328;2022-12-18T00:49:57;4.00;;;2.42;;
24681;SDS011;12802;53.390;-2.328;2022-12-18T00:52:23;6.15;;;3.00;;
24681;SDS011;12802;53.390;-2.328;2022-12-18T00:54:48;5.30;;;2.78;;
24681;SDS011;12802;53.390;-2.328;2022-12-18T00:57:14;13.63;;;3.30;;
24681;SDS011;12802;53.390;-2.328;2022-12-18T00:59:41;6.47;;;3.08;;
24681;SDS011;12802;53.390;-2.328;2022-12-18T01:02:07;4.78;;;2.63;;
24681;SDS011;12802;53.390;-2.328;2022-12-18T01:04:33;2.97;;;2.17;;
24681;SDS011;12802;53.390;-2.328;2022-12-18T01:06:59;12.50;;;2.58;;
24681;SDS011;12802;53.390;-2.328;2022-12-18T01:09:26;10.50;;;2.65;;
24681;SDS011;12802;53.390;-2.328;2022-12-18T01:11:52;3.38;;;2.08;;
24681;SDS011;12802;53.390;-2.328;2022-12-18T01:14:17;7.63;;;3.33;;
24681;SDS011;12802;53.390;-2.328;2022-12-18T01:16:43;4.40;;;2.42;;
24681;SDS011;12802;53.390;-2.328;2022-12-18T01:19:09;4.70;;;1.55;;
24681;SDS011;12802;53.390;-2.328;2022-12-18T01:21:34;4.90;;;2.70;;
24681;SDS011;12802;53.390;-2.328;2022-12-18T01:24:02;4.68;;;2.67;;
24681;SDS011;12802;53.390;-2.328;2022-12-18T01:26:29;4.93;;;1.77;;
24681;SDS011;12802;53.390;-2.328;2022-12-18T01:28:56;5.80;;;2.97;;
24681;SDS011;12802;53.390;-2.328;2022-12-18T01:31:23;3.33;;;1.80;;
24681;SDS011;12802;53.390;-2.328;2022-12-18T01:33:54;4.90;;;1.92;;
24681;SDS011;12802;53.390;-2.328;2022-12-18T01:36:21;3.25;;;1.70;;
24681;SDS011;12802;53.390;-2.328;2022-12-18T01:38:48;7.80;;;2.35;;
24681;SDS011;12802;53.390;-2.328;2022-12-18T01:41:15;4.55;;;1.92;;
24681;SDS011;12802;53.390;-2.328;2022-12-18T01:43:55;5.45;;;2.30;;
24681;SDS011;12802;53.390;-2.328;2022-12-18T01:46:23;5.55;;;2.55;;
24681;SDS011;12802;53.390;-2.328;2022-12-18T01:49:00;7.25;;;2.85;;
24681;SDS011;12802;53.390;-2.328;2022-12-18T01:51:27;5.95;;;2.40;;
24681;SDS011;12802;53.390;-2.328;2022-12-18T01:53:54;4.93;;;2.17;;
24681;SDS011;12802;53.390;-2.328;2022-12-18T01:56:21;3.58;;;1.88;;
24681;SDS011;12802;53.390;-2.328;2022-12-18T02:01:17;3.83;;;2.42;;
24681;SDS011;12802;53.390;-2.328;2022-12-18T02:03:43;6.60;;;2.03;;
24681;SDS011;12802;53.390;-2.328;2022-12-18T02:08:50;5.05;;;2.42;;
24681;SDS011;12802;53.390;-2.328;2022-12-18T02:20:01;5.65;;;2.35;;
24681;SDS011;12802;53.390;-2.328;2022-12-18T02:25:00;5.53;;;2.30;;
24681;SDS011;12802;53.390;-2.328;2022-12-18T02:27:33;4.93;;;1.98;;
24681;SDS011;12802;53.390;-2.328;2022-12-18T02:30:03;3.88;;;2.35;;
24681;SDS011;12802;53.390;-2.328;2022-12-18T02:32:31;4.93;;;2.78;;
24681;SDS011;12802;53.390;-2.328;2022-12-18T02:35:02;10.55;;;2.72;;
24681;SDS011;12802;53.390;-2.328;2022-12-18T02:37:31;3.42;;;2.35;;
24681;SDS011;12802;53.390;-2.328;2022-12-18T02:40:02;5.82;;;3.10;;
24681;SDS011;12802;53.390;-2.328;2022-12-18T02:42:30;6.78;;;2.85;;
24681;SDS011;12802;53.390;-2.328;2022-12-18T02:44:57;6.28;;;3.05;;
24681;SDS011;12802;53.390;-2.328;2022-12-18T02:47:25;5.78;;;2.97;;
24681;SDS011;12802;53.390;-2.328;2022-12-18T02:49:58;11.05;;;3.25;;
24681;SDS011;12802;53.390;-2.328;2022-12-18T02:57:43;9.48;;;3.28;;
24681;SDS011;12802;53.390;-2.328;2022-12-18T03:03:07;11.27;;;3.70;;
24681;SDS011;12802;53.390;-2.328;2022-12-18T03:05:51;4.55;;;3.10;;
24681;SDS011;12802;53.390;-2.328;2022-12-18T03:08:28;6.22;;;3.00;;
24681;SDS011;12802;53.390;-2.328;2022-12-18T03:11:02;4.72;;;3.10;;
24681;SDS011;12802;53.390;-2.328;2022-12-18T03:16:05;4.68;;;2.70;;
24681;SDS011;12802;53.390;-2.328;2022-12-18T03:18:42;6.03;;;3.45;;
24681;SDS011;12802;53.390;-2.328;2022-12-18T03:21:14;6.35;;;3.17;;
24681;SDS011;12802;53.390;-2.328;2022-12-18T03:23:44;4.85;;;3.35;;
24681;SDS011;12802;53.390;-2.328;2022-12-18T03:26:15;5.68;;;2.88;;
24681;SDS011;12802;53.390;-2.328;2022-12-18T03:28:46;7.60;;;3.83;;
24681;SDS011;12802;53.390;-2.328;2022-12-18T03:31:17;6.60;;;2.92;;
24681;SDS011;12802;53.390;-2.328;2022-12-18T03:33:52;11.60;;;4.00;;
24681;SDS011;12802;53.390;-2.328;2022-12-18T03:36:24;6.22;;;4.13;;
24681;SDS011;12802;53.390;-2.328;2022-12-18T03:38:51;8.52;;;4.28;;
24681;SDS011;12802;53.390;-2.328;2022-12-18T03:44:44;7.75;;;3.15;;
24681;SDS011;12802;53.390;-2.328;2022-12-18T03:47:25;6.45;;;3.65;;
24681;SDS011;12802;53.390;-2.328;2022-12-18T03:52:42;9.60;;;4.78;;
24681;SDS011;12802;53.390;-2.328;2022-12-18T03:55:11;8.75;;;4.00;;
24681;SDS011;12802;53.390;-2.328;2022-12-18T03:57:39;10.25;;;4.80;;
24681;SDS011;12802;53.390;-2.328;2022-12-18T04:00:12;8.15;;;4.28;;
24681;SDS011;12802;53.390;-2.328;2022-12-18T04:02:41;8.45;;;3.85;;
24681;SDS011;12802;53.390;-2.328;2022-12-18T04:05:22;8.32;;;3.95;;
24681;SDS011;12802;53.390;-2.328;2022-12-18T04:07:50;9.65;;;4.22;;
24681;SDS011;12802;53.390;-2.328;2022-12-18T04:10:17;5.53;;;3.50;;
24681;SDS011;12802;53.390;-2.328;2022-12-18T04:12:44;5.95;;;3.63;;
24681;SDS011;12802;53.390;-2.328;2022-12-18T04:15:12;10.90;;;5.00;;
24681;SDS011;12802;53.390;-2.328;2022-12-18T04:17:38;12.20;;;4.95;;
24681;SDS011;12802;53.390;-2.328;2022-12-18T04:20:08;10.45;;;4.63;;
24681;SDS011;12802;53.390;-2.328;2022-12-18T04:22:37;9.10;;;4.53;;
24681;SDS011;12802;53.390;-2.328;2022-12-18T04:25:03;11.25;;;4.95;;
24681;SDS011;12802;53.390;-2.328;2022-12-18T04:27:36;9.98;;;4.47;;
24681;SDS011;12802;53.390;-2.328;2022-12-18T04:30:03;9.35;;;4.53;;
24681;SDS011;12802;53.390;-2.328;2022-12-18T04:32:30;9.05;;;4.97;;
24681;SDS011;12802;53.390;-2.328;2022-12-18T04:34:55;7.30;;;4.95;;
24681;SDS011;12802;53.390;-2.328;2022-12-18T04:37:21;7.97;;;4.28;;
24681;SDS011;12802;53.390;-2.328;2022-12-18T04:39:48;10.18;;;4.63;;
24681;SDS011;12802;53.390;-2.328;2022-12-18T04:42:21;10.85;;;4.57;;
24681;SDS011;12802;53.390;-2.328;2022-12-18T04:44:47;9.57;;;5.35;;
24681;SDS011;12802;53.390;-2.328;2022-12-18T04:47:13;9.43;;;3.95;;
24681;SDS011;12802;53.390;-2.328;2022-12-18T04:49:40;8.38;;;4.95;;
24681;SDS011;12802;53.390;-2.328;2022-12-18T04:52:07;13.13;;;4.80;;
24681;SDS011;12802;53.390;-2.328;2022-12-18T04:54:32;8.45;;;4.93;;
24681;SDS011;12802;53.390;-2.328;2022-12-18T04:56:58;9.05;;;5.15;;
24681;SDS011;12802;53.390;-2.328;2022-12-18T04:59:24;7.65;;;4.68;;
24681;SDS011;12802;53.390;-2.328;2022-12-18T05:01:49;7.38;;;5.05;;
24681;SDS011;12802;53.390;-2.328;2022-12-18T05:04:15;13.45;;;5.22;;
24681;SDS011;12802;53.390;-2.328;2022-12-18T05:06:41;10.05;;;5.20;;
24681;SDS011;12802;53.390;-2.328;2022-12-18T05:09:07;10.10;;;5.32;;
24681;SDS011;12802;53.390;-2.328;2022-12-18T05:11:33;7.43;;;4.30;;
24681;SDS011;12802;53.390;-2.328;2022-12-18T05:13:58;9.75;;;5.03;;
24681;SDS011;12802;53.390;-2.328;2022-12-18T05:16:24;11.65;;;5.40;;
24681;SDS011;12802;53.390;-2.328;2022-12-18T05:18:50;14.77;;;5.20;;
24681;SDS011;12802;53.390;-2.328;2022-12-18T05:21:15;7.30;;;4.78;;
24681;SDS011;12802;53.390;-2.328;2022-12-18T05:23:41;13.43;;;6.00;;
24681;SDS011;12802;53.390;-2.328;2022-12-18T05:26:14;12.35;;;5.63;;
24681;SDS011;12802;53.390;-2.328;2022-12-18T05:28:42;11.23;;;6.20;;
24681;SDS011;12802;53.390;-2.328;2022-12-18T05:31:09;12.27;;;5.43;;
24681;SDS011;12802;53.390;-2.328;2022-12-18T05:33:35;14.30;;;7.22;;
24681;SDS011;12802;53.390;-2.328;2022-12-18T05:36:02;11.57;;;6.45;;
24681;SDS011;12802;53.390;-2.328;2022-12-18T05:38:32;12.27;;;7.03;;
24681;SDS011;12802;53.390;-2.328;2022-12-18T05:40:59;20.55;;;7.43;;
24681;SDS011;12802;53.390;-2.328;2022-12-18T05:43:25;12.13;;;7.20;;
24681;SDS011;12802;53.390;-2.328;2022-12-18T05:45:52;15.18;;;7.22;;
24681;SDS011;12802;53.390;-2.328;2022-12-18T05:48:18;12.40;;;7.50;;
24681;SDS011;12802;53.390;-2.328;2022-12-18T05:50:45;19.02;;;8.52;;
24681;SDS011;12802;53.390;-2.328;2022-12-18T05:53:12;23.08;;;9.52;;
24681;SDS011;12802;53.390;-2.328;2022-12-18T05:55:40;14.05;;;7.75;;
24681;SDS011;12802;53.390;-2.328;2022-12-18T05:58:07;18.08;;;9.73;;
24681;SDS011;12802;53.390;-2.328;2022-12-18T06:00:34;17.55;;;8.75;;
24681;SDS011;12802;53.390;-2.328;2022-12-18T06:03:05;20.58;;;11.25;;
24681;SDS011;12802;53.390;-2.328;2022-12-18T06:05:35;20.42;;;11.45;;
24681;SDS011;12802;53.390;-2.328;2022-12-18T06:08:02;18.63;;;10.48;;
24681;SDS011;12802;53.390;-2.328;2022-12-18T06:10:28;20.08;;;10.23;;
24681;SDS011;12802;53.390;-2.328;2022-12-18T06:12:54;20.33;;;11.05;;
24681;SDS011;12802;53.390;-2.328;2022-12-18T06:15:20;22.25;;;11.93;;
24681;SDS011;12802;53.390;-2.328;2022-12-18T06:17:46;17.63;;;9.68;;
24681;SDS011;12802;53.390;-2.328;2022-12-18T06:20:11;23.45;;;11.10;;
24681;SDS011;12802;53.390;-2.328;2022-12-18T06:22:37;21.40;;;12.10;;
24681;SDS011;12802;53.390;-2.328;2022-12-18T06:25:03;20.48;;;11.25;;
24681;SDS011;12802;53.390;-2.328;2022-12-18T06:27:29;20.48;;;10.38;;
24681;SDS011;12802;53.390;-2.328;2022-12-18T06:29:55;22.80;;;10.88;;
24681;SDS011;12802;53.390;-2.328;2022-12-18T06:32:20;19.90;;;10.32;;
24681;SDS011;12802;53.390;-2.328;2022-12-18T06:34:46;24.10;;;12.43;;
24681;SDS011;12802;53.390;-2.328;2022-12-18T06:37:12;25.75;;;12.70;;
24681;SDS011;12802;53.390;-2.328;2022-12-18T06:39:38;24.83;;;11.90;;
24681;SDS011;12802;53.390;-2.328;2022-12-18T06:42:03;27.52;;;12.02;;
24681;SDS011;12802;53.390;-2.328;2022-12-18T06:44:29;24.30;;;12.25;;
24681;SDS011;12802;53.390;-2.328;2022-12-18T06:46:55;19.17;;;11.35;;
24681;SDS011;12802;53.390;-2.328;2022-12-18T06:49:21;20.73;;;12.85;;
24681;SDS011;12802;53.390;-2.328;2022-12-18T06:51:46;25.27;;;13.73;;
24681;SDS011;12802;53.390;-2.328;2022-12-18T06:54:12;21.27;;;12.40;;
24681;SDS011;12802;53.390;-2.328;2022-12-18T06:56:38;20.13;;;11.85;;
24681;SDS011;12802;53.390;-2.328;2022-12-18T06:59:03;25.58;;;12.40;;
24681;SDS011;12802;53.390;-2.328;2022-12-18T07:01:29;24.48;;;12.45;;
24681;SDS011;12802;53.390;-2.328;2022-12-18T07:03:55;25.83;;;11.57;;
24681;SDS011;12802;53.390;-2.328;2022-12-18T07:06:23;27.50;;;12.90;;
24681;SDS011;12802;53.390;-2.328;2022-12-18T07:08:51;23.48;;;11.75;;
24681;SDS011;12802;53.390;-2.328;2022-12-18T07:11:18;19.50;;;11.82;;
24681;SDS011;12802;53.390;-2.328;2022-12-18T07:13:45;20.10;;;12.93;;
24681;SDS011;12802;53.390;-2.328;2022-12-18T07:16:12;24.85;;;12.50;;
24681;SDS011;12802;53.390;-2.328;2022-12-18T07:18:43;27.40;;;12.90;;
24681;SDS011;12802;53.390;-2.328;2022-12-18T07:21:10;31.13;;;14.25;;
24681;SDS011;12802;53.390;-2.328;2022-12-18T07:23:38;22.90;;;12.82;;
24681;SDS011;12802;53.390;-2.328;2022-12-18T07:26:04;21.50;;;13.07;;
24681;SDS011;12802;53.390;-2.328;2022-12-18T07:28:32;30.65;;;13.82;;
24681;SDS011;12802;53.390;-2.328;2022-12-18T07:31:09;33.75;;;15.07;;
24681;SDS011;12802;53.390;-2.328;2022-12-18T07:33:37;25.73;;;13.82;;
24681;SDS011;12802;53.390;-2.328;2022-12-18T07:36:03;23.00;;;13.05;;
24681;SDS011;12802;53.390;-2.328;2022-12-18T07:38:30;25.48;;;13.63;;
24681;SDS011;12802;53.390;-2.328;2022-12-18T07:41:00;30.17;;;13.55;;
24681;SDS011;12802;53.390;-2.328;2022-12-18T07:43:31;26.77;;;13.50;;
24681;SDS011;12802;53.390;-2.328;2022-12-18T07:45:57;28.83;;;14.70;;
24681;SDS011;12802;53.390;-2.328;2022-12-18T07:48:23;25.05;;;13.35;;
24681;SDS011;12802;53.390;-2.328;2022-12-18T07:50:48;24.13;;;14.05;;
24681;SDS011;12802;53.390;-2.328;2022-12-18T07:53:14;28.25;;;13.60;;
24681;SDS011;12802;53.390;-2.328;2022-12-18T07:55:40;26.65;;;15.20;;
24681;SDS011;12802;53.390;-2.328;2022-12-18T07:58:07;26.25;;;14.63;;
24681;SDS011;12802;53.390;-2.328;2022-12-18T08:00:34;31.23;;;13.73;;
24681;SDS011;12802;53.390;-2.328;2022-12-18T08:03:00;26.48;;;13.45;;
24681;SDS011;12802;53.390;-2.328;2022-12-18T08:05:26;26.38;;;13.70;;
24681;SDS011;12802;53.390;-2.328;2022-12-18T08:07:52;26.52;;;14.10;;
24681;SDS011;12802;53.390;-2.328;2022-12-18T08:10:18;28.25;;;14.13;;
24681;SDS011;12802;53.390;-2.328;2022-12-18T08:12:45;25.20;;;12.80;;
24681;SDS011;12802;53.390;-2.328;2022-12-18T08:15:13;24.70;;;13.80;;
24681;SDS011;12802;53.390;-2.328;2022-12-18T08:17:39;25.63;;;13.23;;
24681;SDS011;12802;53.390;-2.328;2022-12-18T08:20:05;24.67;;;14.15;;
24681;SDS011;12802;53.390;-2.328;2022-12-18T08:22:33;27.25;;;14.57;;
24681;SDS011;12802;53.390;-2.328;2022-12-18T08:25:02;27.70;;;14.52;;
24681;SDS011;12802;53.390;-2.328;2022-12-18T08:27:28;26.15;;;13.45;;
24681;SDS011;12802;53.390;-2.328;2022-12-18T08:29:54;25.15;;;13.18;;
24681;SDS011;12802;53.390;-2.328;2022-12-18T08:32:20;30.85;;;15.00;;
24681;SDS011;12802;53.390;-2.328;2022-12-18T08:34:46;23.13;;;14.23;;
24681;SDS011;12802;53.390;-2.328;2022-12-18T08:37:12;25.80;;;12.85;;
24681;SDS011;12802;53.390;-2.328;2022-12-18T08:39:38;28.65;;;15.32;;
24681;SDS011;12802;53.390;-2.328;2022-12-18T08:42:04;23.73;;;14.68;;
24681;SDS011;12802;53.390;-2.328;2022-12-18T08:44:48;22.38;;;13.13;;
24681;SDS011;12802;53.390;-2.328;2022-12-18T08:47:13;26.90;;;14.35;;
24681;SDS011;12802;53.390;-2.328;2022-12-18T08:49:39;35.35;;;13.50;;
24681;SDS011;12802;53.390;-2.328;2022-12-18T08:52:05;24.15;;;14.32;;
24681;SDS011;12802;53.390;-2.328;2022-12-18T08:54:31;34.10;;;15.50;;
24681;SDS011;12802;53.390;-2.328;2022-12-18T08:56:57;27.35;;;13.77;;
24681;SDS011;12802;53.390;-2.328;2022-12-18T08:59:22;26.42;;;13.82;;
24681;SDS011;12802;53.390;-2.328;2022-12-18T09:01:48;29.33;;;13.88;;
24681;SDS011;12802;53.390;-2.328;2022-12-18T09:04:14;32.30;;;14.23;;
24681;SDS011;12802;53.390;-2.328;2022-12-18T09:06:40;27.60;;;13.43;;
24681;SDS011;12802;53.390;-2.328;2022-12-18T09:09:06;25.27;;;13.75;;
24681;SDS011;12802;53.390;-2.328;2022-12-18T09:11:32;37.70;;;13.60;;
24681;SDS011;12802;53.390;-2.328;2022-12-18T09:13:59;25.30;;;13.05;;
24681;SDS011;12802;53.390;-2.328;2022-12-18T09:16:26;20.65;;;12.00;;
24681;SDS011;12802;53.390;-2.328;2022-12-18T09:18:54;28.35;;;13.48;;
24681;SDS011;12802;53.390;-2.328;2022-12-18T09:21:24;25.00;;;12.65;;
24681;SDS011;12802;53.390;-2.328;2022-12-18T09:23:52;24.38;;;12.90;;
24681;SDS011;12802;53.390;-2.328;2022-12-18T09:26:20;25.50;;;13.27;;
24681;SDS011;12802;53.390;-2.328;2022-12-18T09:28:46;32.58;;;13.52;;
24681;SDS011;12802;53.390;-2.328;2022-12-18T09:31:12;24.33;;;12.18;;
24681;SDS011;12802;53.390;-2.328;2022-12-18T09:33:39;25.42;;;12.98;;
24681;SDS011;12802;53.390;-2.328;2022-12-18T09:36:05;27.00;;;11.93;;
24681;SDS011;12802;53.390;-2.328;2022-12-18T09:38:33;25.35;;;11.73;;
24681;SDS011;12802;53.390;-2.328;2022-12-18T09:41:02;24.20;;;12.80;;
24681;SDS011;12802;53.390;-2.328;2022-12-18T09:43:51;20.38;;;9.75;;
24681;SDS011;12802;53.390;-2.328;2022-12-18T09:46:26;24.95;;;10.55;;
24681;SDS011;12802;53.390;-2.328;2022-12-18T09:48:59;20.70;;;10.40;;
24681;SDS011;12802;53.390;-2.328;2022-12-18T09:54:06;28.58;;;12.25;;
24681;SDS011;12802;53.390;-2.328;2022-12-18T09:56:40;21.77;;;10.82;;
24681;SDS011;12802;53.390;-2.328;2022-12-18T09:59:09;17.80;;;10.85;;
24681;SDS011;12802;53.390;-2.328;2022-12-18T10:01:43;28.98;;;12.20;;
24681;SDS011;12802;53.390;-2.328;2022-12-18T10:04:09;22.48;;;12.10;;
24681;SDS011;12802;53.390;-2.328;2022-12-18T10:06:38;32.80;;;11.85;;
24681;SDS011;12802;53.390;-2.328;2022-12-18T10:20:01;20.20;;;10.70;;
24681;SDS011;12802;53.390;-2.328;2022-12-18T10:22:41;25.92;;;12.20;;
24681;SDS011;12802;53.390;-2.328;2022-12-18T10:25:29;29.17;;;11.80;;
24681;SDS011;12802;53.390;-2.328;2022-12-18T10:28:20;24.23;;;11.63;;
24681;SDS011;12802;53.390;-2.328;2022-12-18T10:30:47;31.83;;;10.82;;
24681;SDS011;12802;53.390;-2.328;2022-12-18T10:33:17;21.77;;;10.80;;
24681;SDS011;12802;53.390;-2.328;2022-12-18T10:35:47;19.52;;;11.35;;
24681;SDS011;12802;53.390;-2.328;2022-12-18T10:41:04;18.67;;;11.40;;
24681;SDS011;12802;53.390;-2.328;2022-12-18T10:43:39;19.30;;;10.88;;
24681;SDS011;12802;53.390;-2.328;2022-12-18T10:51:09;28.52;;;11.30;;
24681;SDS011;12802;53.390;-2.328;2022-12-18T10:53:35;16.50;;;9.53;;
24681;SDS011;12802;53.390;-2.328;2022-12-18T10:56:02;24.83;;;11.25;;
24681;SDS011;12802;53.390;-2.328;2022-12-18T10:58:35;18.58;;;10.05;;
24681;SDS011;12802;53.390;-2.328;2022-12-18T11:01:06;14.88;;;10.32;;
24681;SDS011;12802;53.390;-2.328;2022-12-18T11:03:36;21.17;;;11.45;;
24681;SDS011;12802;53.390;-2.328;2022-12-18T11:06:08;16.92;;;9.40;;
24681;SDS011;12802;53.390;-2.328;2022-12-18T11:11:51;22.50;;;10.98;;
24681;SDS011;12802;53.390;-2.328;2022-12-18T11:14:23;16.38;;;9.98;;
24681;SDS011;12802;53.390;-2.328;2022-12-18T11:16:54;20.45;;;10.13;;
24681;SDS011;12802;53.390;-2.328;2022-12-18T11:19:38;23.02;;;10.40;;
24681;SDS011;12802;53.390;-2.328;2022-12-18T11:27:32;22.17;;;10.32;;
24681;SDS011;12802;53.390;-2.328;2022-12-18T11:33:01;20.02;;;9.95;;
24681;SDS011;12802;53.390;-2.328;2022-12-18T11:38:16;16.45;;;8.90;;
24681;SDS011;12802;53.390;-2.328;2022-12-18T11:40:50;19.77;;;9.30;;
24681;SDS011;12802;53.390;-2.328;2022-12-18T11:43:28;20.40;;;10.93;;
24681;SDS011;12802;53.390;-2.328;2022-12-18T11:46:12;16.08;;;8.70;;
24681;SDS011;12802;53.390;-2.328;2022-12-18T11:51:58;12.43;;;8.77;;
24681;SDS011;12802;53.390;-2.328;2022-12-18T11:57:10;19.48;;;9.75;;
24681;SDS011;12802;53.390;-2.328;2022-12-18T12:10:49;22.35;;;10.02;;
24681;SDS011;12802;53.390;-2.328;2022-12-18T12:13:43;14.88;;;9.32;;
24681;SDS011;12802;53.390;-2.328;2022-12-18T12:18:56;18.52;;;9.10;;
24681;SDS011;12802;53.390;-2.328;2022-12-18T12:21:47;15.35;;;7.85;;
24681;SDS011;12802;53.390;-2.328;2022-12-18T12:32:45;14.43;;;7.28;;
24681;SDS011;12802;53.390;-2.328;2022-12-18T12:38:30;17.08;;;9.20;;
24681;SDS011;12802;53.390;-2.328;2022-12-18T12:41:14;14.23;;;7.50;;
24681;SDS011;12802;53.390;-2.328;2022-12-18T12:44:02;13.23;;;7.78;;
24681;SDS011;12802;53.390;-2.328;2022-12-18T12:46:35;17.90;;;9.18;;
24681;SDS011;12802;53.390;-2.328;2022-12-18T12:49:07;13.88;;;8.95;;
24681;SDS011;12802;53.390;-2.328;2022-12-18T12:51:39;16.05;;;7.88;;
24681;SDS011;12802;53.390;-2.328;2022-12-18T12:56:57;14.38;;;7.22;;
24681;SDS011;12802;53.390;-2.328;2022-12-18T12:59:44;18.17;;;8.30;;
24681;SDS011;12802;53.390;-2.328;2022-12-18T13:03:18;14.27;;;7.80;;
24681;SDS011;12802;53.390;-2.328;2022-12-18T13:05:24;16.92;;;8.55;;
24681;SDS011;12802;53.390;-2.328;2022-12-18T13:10:31;20.20;;;9.93;;
24681;SDS011;12802;53.390;-2.328;2022-12-18T13:13:06;20.65;;;10.15;;
24681;SDS011;12802;53.390;-2.328;2022-12-18T13:15:37;21.35;;;10.27;;
24681;SDS011;12802;53.390;-2.328;2022-12-18T13:20:37;15.05;;;8.52;;
24681;SDS011;12802;53.390;-2.328;2022-12-18T13:25:53;21.13;;;8.93;;
24681;SDS011;12802;53.390;-2.328;2022-12-18T13:30:53;13.10;;;7.70;;
24681;SDS011;12802;53.390;-2.328;2022-12-18T13:38:35;12.60;;;7.80;;
24681;SDS011;12802;53.390;-2.328;2022-12-18T13:41:24;15.98;;;7.68;;
24681;SDS011;12802;53.390;-2.328;2022-12-18T13:43:51;16.05;;;9.02;;
24681;SDS011;12802;53.390;-2.328;2022-12-18T13:51:21;16.33;;;9.10;;
24681;SDS011;12802;53.390;-2.328;2022-12-18T13:53:49;15.18;;;8.65;;
24681;SDS011;12802;53.390;-2.328;2022-12-18T13:56:42;16.33;;;8.50;;
24681;SDS011;12802;53.390;-2.328;2022-12-18T13:59:40;11.05;;;7.25;;
24681;SDS011;12802;53.390;-2.328;2022-12-18T14:02:13;20.13;;;8.68;;
24681;SDS011;12802;53.390;-2.328;2022-12-18T14:04:40;14.52;;;7.93;;
24681;SDS011;12802;53.390;-2.328;2022-12-18T14:07:13;13.30;;;8.37;;
24681;SDS011;12802;53.390;-2.328;2022-12-18T14:10:02;13.40;;;8.00;;
24681;SDS011;12802;53.390;-2.328;2022-12-18T14:12:30;21.15;;;8.25;;
24681;SDS011;12802;53.390;-2.328;2022-12-18T14:16:02;15.27;;;7.90;;
24681;SDS011;12802;53.390;-2.328;2022-12-18T14:18:23;17.00;;;8.57;;
24681;SDS011;12802;53.390;-2.328;2022-12-18T14:21:19;15.50;;;8.25;;
24681;SDS011;12802;53.390;-2.328;2022-12-18T14:24:11;14.50;;;8.65;;
24681;SDS011;12802;53.390;-2.328;2022-12-18T14:26:42;15.50;;;6.80;;
24681;SDS011;12802;53.390;-2.328;2022-12-18T14:29:41;14.32;;;7.93;;
24681;SDS011;12802;53.390;-2.328;2022-12-18T14:32:04;11.43;;;7.13;;
24681;SDS011;12802;53.390;-2.328;2022-12-18T14:34:39;8.57;;;5.70;;
24681;SDS011;12802;53.390;-2.328;2022-12-18T14:37:05;7.43;;;5.80;;
24681;SDS011;12802;53.390;-2.328;2022-12-18T14:42:00;13.18;;;6.95;;
24681;SDS011;12802;53.390;-2.328;2022-12-18T14:44:25;10.68;;;6.85;;
24681;SDS011;12802;53.390;-2.328;2022-12-18T14:46:51;8.38;;;5.57;;
24681;SDS011;12802;53.390;-2.328;2022-12-18T14:51:51;13.50;;;6.97;;
24681;SDS011;12802;53.390;-2.328;2022-12-18T14:54:19;11.07;;;5.50;;
24681;SDS011;12802;53.390;-2.328;2022-12-18T14:56:49;10.25;;;5.20;;
24681;SDS011;12802;53.390;-2.328;2022-12-18T14:59:22;7.72;;;4.35;;
24681;SDS011;12802;53.390;-2.328;2022-12-18T15:05:16;7.75;;;3.70;;
24681;SDS011;12802;53.390;-2.328;2022-12-18T15:07:50;7.10;;;4.50;;
24681;SDS011;12802;53.390;-2.328;2022-12-18T15:13:09;6.82;;;3.88;;
24681;SDS011;12802;53.390;-2.328;2022-12-18T15:15:45;8.30;;;3.75;;
24681;SDS011;12802;53.390;-2.328;2022-12-18T15:18:14;6.50;;;3.65;;
24681;SDS011;12802;53.390;-2.328;2022-12-18T15:25:49;3.65;;;2.47;;
24681;SDS011;12802;53.390;-2.328;2022-12-18T15:28:34;6.93;;;2.50;;
24681;SDS011;12802;53.390;-2.328;2022-12-18T15:33:41;5.38;;;3.05;;
24681;SDS011;12802;53.390;-2.328;2022-12-18T15:36:11;5.70;;;3.40;;
24681;SDS011;12802;53.390;-2.328;2022-12-18T15:38:39;9.43;;;5.10;;
24681;SDS011;12802;53.390;-2.328;2022-12-18T15:41:04;9.82;;;3.50;;
24681;SDS011;12802;53.390;-2.328;2022-12-18T15:43:30;5.13;;;2.70;;
24681;SDS011;12802;53.390;-2.328;2022-12-18T15:46:11;4.65;;;2.83;;
24681;SDS011;12802;53.390;-2.328;2022-12-18T15:48:39;3.60;;;2.10;;
24681;SDS011;12802;53.390;-2.328;2022-12-18T15:51:10;4.30;;;3.05;;
24681;SDS011;12802;53.390;-2.328;2022-12-18T15:53:46;3.47;;;2.78;;
24681;SDS011;12802;53.390;-2.328;2022-12-18T15:56:15;5.78;;;3.35;;
24681;SDS011;12802;53.390;-2.328;2022-12-18T15:59:00;6.80;;;3.17;;
24681;SDS011;12802;53.390;-2.328;2022-12-18T16:01:30;4.72;;;3.25;;
24681;SDS011;12802;53.390;-2.328;2022-12-18T16:06:22;7.00;;;3.50;;
24681;SDS011;12802;53.390;-2.328;2022-12-18T16:08:48;5.47;;;3.42;;
24681;SDS011;12802;53.390;-2.328;2022-12-18T16:11:22;6.80;;;3.58;;
24681;SDS011;12802;53.390;-2.328;2022-12-18T16:17:10;8.75;;;3.80;;
24681;SDS011;12802;53.390;-2.328;2022-12-18T16:19:37;7.07;;;3.92;;
24681;SDS011;12802;53.390;-2.328;2022-12-18T16:22:03;7.15;;;4.15;;
24681;SDS011;12802;53.390;-2.328;2022-12-18T16:24:31;8.77;;;4.22;;
24681;SDS011;12802;53.390;-2.328;2022-12-18T16:26:58;6.40;;;4.25;;
24681;SDS011;12802;53.390;-2.328;2022-12-18T16:29:25;6.28;;;4.28;;
24681;SDS011;12802;53.390;-2.328;2022-12-18T16:31:53;7.03;;;4.20;;
24681;SDS011;12802;53.390;-2.328;2022-12-18T16:36:53;6.25;;;3.88;;
24681;SDS011;12802;53.390;-2.328;2022-12-18T16:39:24;7.00;;;4.82;;
24681;SDS011;12802;53.390;-2.328;2022-12-18T16:41:50;8.25;;;3.97;;
24681;SDS011;12802;53.390;-2.328;2022-12-18T16:44:16;9.75;;;4.63;;
24681;SDS011;12802;53.390;-2.328;2022-12-18T16:46:43;6.25;;;4.10;;
24681;SDS011;12802;53.390;-2.328;2022-12-18T16:49:14;12.00;;;4.25;;
24681;SDS011;12802;53.390;-2.328;2022-12-18T16:51:40;7.22;;;4.30;;
24681;SDS011;12802;53.390;-2.328;2022-12-18T16:54:06;6.10;;;4.13;;
24681;SDS011;12802;53.390;-2.328;2022-12-18T16:56:33;10.75;;;3.60;;
24681;SDS011;12802;53.390;-2.328;2022-12-18T16:58:59;7.55;;;3.15;;
24681;SDS011;12802;53.390;-2.328;2022-12-18T17:01:27;9.73;;;3.33;;
24681;SDS011;12802;53.390;-2.328;2022-12-18T17:03:57;6.95;;;3.53;;
24681;SDS011;12802;53.390;-2.328;2022-12-18T17:06:25;5.20;;;2.97;;
24681;SDS011;12802;53.390;-2.328;2022-12-18T17:08:54;5.60;;;3.90;;